sensor_id;sensor_type;location;lat;lon;timestamp;P1;durP1;ratioP1;P2;durP2;ratioP2
23376;SDS011;14353;46.070;13.222;2023-04-19T00:01:25;1.58;;;1.48;;
23376;SDS011;14353;46.070;13.222;2023-04-19T00:03:52;1.30;;;1.20;;
23376;SDS011;14353;46.070;13.222;2023-04-19T00:06:18;1.92;;;1.45;;
23376;SDS011;14353;46.070;13.222;2023-04-19T00:08:45;1.38;;;1.17;;
23376;SDS011;14353;46.070;13.222;2023-04-19T00:11:10;1.42;;;1.30;;
23376;SDS011;14353;46.070;13.222;2023-04-19T00:13:36;1.45;;;1.25;;
23376;SDS011;14353;46.070;13.222;2023-04-19T00:16:02;1.30;;;1.20;;
23376;SDS011;14353;46.070;13.222;2023-04-19T00:18:29;1.50;;;1.40;;
23376;SDS011;14353;46.070;13.222;2023-04-19T00:20:54;1.38;;;1.27;;
23376;SDS011;14353;46.070;13.222;2023-04-19T00:23:20;1.67;;;1.35;;
23376;SDS011;14353;46.070;13.222;2023-04-19T00:25:47;1.65;;;1.50;;
23376;SDS011;14353;46.070;13.222;2023-04-19T00:28:13;1.65;;;1.35;;
23376;SDS011;14353;46.070;13.222;2023-04-19T00:30:40;1.85;;;1.40;;
23376;SDS011;14353;46.070;13.222;2023-04-19T00:33:05;1.42;;;1.33;;
23376;SDS011;14353;46.070;13.222;2023-04-19T00:35:37;1.50;;;1.40;;
23376;SDS011;14353;46.070;13.222;2023-04-19T00:38:06;1.52;;;1.30;;
23376;SDS011;14353;46.070;13.222;2023-04-19T00:40:32;1.40;;;1.30;;
23376;SDS011;14353;46.070;13.222;2023-04-19T00:42:58;1.50;;;1.40;;
23376;SDS011;14353;46.070;13.222;2023-04-19T00:45:24;1.80;;;1.50;;
23376;SDS011;14353;46.070;13.222;2023-04-19T00:47:50;1.75;;;1.48;;
23376;SDS011;14353;46.070;13.222;2023-04-19T00:50:17;1.58;;;1.48;;
23376;SDS011;14353;46.070;13.222;2023-04-19T00:52:43;1.73;;;1.52;;
23376;SDS011;14353;46.070;13.222;2023-04-19T00:55:10;1.40;;;1.30;;
23376;SDS011;14353;46.070;13.222;2023-04-19T00:57:36;1.83;;;1.70;;
23376;SDS011;14353;46.070;13.222;2023-04-19T01:00:02;1.67;;;1.38;;
23376;SDS011;14353;46.070;13.222;2023-04-19T01:02:32;1.58;;;1.33;;
23376;SDS011;14353;46.070;13.222;2023-04-19T01:04:58;1.75;;;1.60;;
23376;SDS011;14353;46.070;13.222;2023-04-19T01:07:24;1.63;;;1.50;;
23376;SDS011;14353;46.070;13.222;2023-04-19T01:09:50;1.40;;;1.30;;
23376;SDS011;14353;46.070;13.222;2023-04-19T01:12:16;1.58;;;1.35;;
23376;SDS011;14353;46.070;13.222;2023-04-19T01:14:42;1.83;;;1.33;;
23376;SDS011;14353;46.070;13.222;2023-04-19T01:17:08;2.50;;;1.40;;
23376;SDS011;14353;46.070;13.222;2023-04-19T01:19:35;2.63;;;1.35;;
23376;SDS011;14353;46.070;13.222;2023-04-19T01:22:01;1.60;;;1.50;;
23376;SDS011;14353;46.070;13.222;2023-04-19T01:24:30;1.60;;;1.50;;
23376;SDS011;14353;46.070;13.222;2023-04-19T01:26:56;1.60;;;1.50;;
23376;SDS011;14353;46.070;13.222;2023-04-19T01:29:22;1.50;;;1.40;;
23376;SDS011;14353;46.070;13.222;2023-04-19T01:31:48;1.60;;;1.50;;
23376;SDS011;14353;46.070;13.222;2023-04-19T01:34:17;1.50;;;1.40;;
23376;SDS011;14353;46.070;13.222;2023-04-19T01:36:44;1.50;;;1.38;;
23376;SDS011;14353;46.070;13.222;2023-04-19T01:39:09;2.15;;;1.58;;
23376;SDS011;14353;46.070;13.222;2023-04-19T01:41:35;2.15;;;1.60;;
23376;SDS011;14353;46.070;13.222;2023-04-19T01:44:01;1.75;;;1.55;;
23376;SDS011;14353;46.070;13.222;2023-04-19T01:46:27;1.80;;;1.60;;
23376;SDS011;14353;46.070;13.222;2023-04-19T01:48:53;1.50;;;1.40;;
23376;SDS011;14353;46.070;13.222;2023-04-19T01:51:19;1.70;;;1.60;;
23376;SDS011;14353;46.070;13.222;2023-04-19T01:53:46;1.90;;;1.70;;
23376;SDS011;14353;46.070;13.222;2023-04-19T01:56:17;1.88;;;1.40;;
23376;SDS011;14353;46.070;13.222;2023-04-19T01:58:43;1.90;;;1.73;;
23376;SDS011;14353;46.070;13.222;2023-04-19T02:01:09;1.60;;;1.50;;
23376;SDS011;14353;46.070;13.222;2023-04-19T02:03:36;1.77;;;1.60;;
23376;SDS011;14353;46.070;13.222;2023-04-19T02:06:03;1.90;;;1.60;;
23376;SDS011;14353;46.070;13.222;2023-04-19T02:08:29;1.70;;;1.60;;
23376;SDS011;14353;46.070;13.222;2023-04-19T02:10:54;1.77;;;1.67;;
23376;SDS011;14353;46.070;13.222;2023-04-19T02:13:20;1.67;;;1.58;;
23376;SDS011;14353;46.070;13.222;2023-04-19T02:15:46;1.50;;;1.40;;
23376;SDS011;14353;46.070;13.222;2023-04-19T02:18:11;1.95;;;1.75;;
23376;SDS011;14353;46.070;13.222;2023-04-19T02:20:37;1.75;;;1.52;;
23376;SDS011;14353;46.070;13.222;2023-04-19T02:23:03;2.00;;;1.50;;
23376;SDS011;14353;46.070;13.222;2023-04-19T02:25:29;2.42;;;1.60;;
23376;SDS011;14353;46.070;13.222;2023-04-19T02:27:55;1.77;;;1.67;;
23376;SDS011;14353;46.070;13.222;2023-04-19T02:30:21;1.60;;;1.40;;
23376;SDS011;14353;46.070;13.222;2023-04-19T02:32:50;1.63;;;1.52;;
23376;SDS011;14353;46.070;13.222;2023-04-19T02:35:15;1.83;;;1.60;;
23376;SDS011;14353;46.070;13.222;2023-04-19T02:37:42;1.70;;;1.60;;
23376;SDS011;14353;46.070;13.222;2023-04-19T02:40:08;1.75;;;1.40;;
23376;SDS011;14353;46.070;13.222;2023-04-19T02:42:34;1.77;;;1.50;;
23376;SDS011;14353;46.070;13.222;2023-04-19T02:45:00;2.25;;;1.77;;
23376;SDS011;14353;46.070;13.222;2023-04-19T02:47:26;2.00;;;1.80;;
23376;SDS011;14353;46.070;13.222;2023-04-19T02:49:51;1.70;;;1.60;;
23376;SDS011;14353;46.070;13.222;2023-04-19T02:52:17;1.48;;;1.38;;
23376;SDS011;14353;46.070;13.222;2023-04-19T02:54:43;2.55;;;1.80;;
23376;SDS011;14353;46.070;13.222;2023-04-19T02:57:09;1.77;;;1.67;;
23376;SDS011;14353;46.070;13.222;2023-04-19T02:59:35;1.92;;;1.70;;
23376;SDS011;14353;46.070;13.222;2023-04-19T03:02:00;1.60;;;1.50;;
23376;SDS011;14353;46.070;13.222;2023-04-19T03:04:26;3.05;;;1.88;;
23376;SDS011;14353;46.070;13.222;2023-04-19T03:06:53;1.75;;;1.65;;
23376;SDS011;14353;46.070;13.222;2023-04-19T03:09:19;1.63;;;1.52;;
23376;SDS011;14353;46.070;13.222;2023-04-19T03:11:44;1.77;;;1.50;;
23376;SDS011;14353;46.070;13.222;2023-04-19T03:14:10;1.77;;;1.60;;
23376;SDS011;14353;46.070;13.222;2023-04-19T03:16:36;1.95;;;1.77;;
23376;SDS011;14353;46.070;13.222;2023-04-19T03:19:02;1.65;;;1.55;;
23376;SDS011;14353;46.070;13.222;2023-04-19T03:21:28;1.50;;;1.40;;
23376;SDS011;14353;46.070;13.222;2023-04-19T03:23:53;2.03;;;1.60;;
23376;SDS011;14353;46.070;13.222;2023-04-19T03:26:19;2.45;;;2.20;;
23376;SDS011;14353;46.070;13.222;2023-04-19T03:28:45;1.88;;;1.60;;
23376;SDS011;14353;46.070;13.222;2023-04-19T03:31:11;2.05;;;1.80;;
23376;SDS011;14353;46.070;13.222;2023-04-19T03:33:36;1.63;;;1.52;;
23376;SDS011;14353;46.070;13.222;2023-04-19T03:36:02;1.60;;;1.50;;
23376;SDS011;14353;46.070;13.222;2023-04-19T03:38:28;1.63;;;1.50;;
23376;SDS011;14353;46.070;13.222;2023-04-19T03:40:54;1.85;;;1.65;;
23376;SDS011;14353;46.070;13.222;2023-04-19T03:43:21;1.75;;;1.65;;
23376;SDS011;14353;46.070;13.222;2023-04-19T03:45:48;2.13;;;1.60;;
23376;SDS011;14353;46.070;13.222;2023-04-19T03:48:14;2.08;;;1.58;;
23376;SDS011;14353;46.070;13.222;2023-04-19T03:50:40;1.67;;;1.58;;
23376;SDS011;14353;46.070;13.222;2023-04-19T03:53:06;1.58;;;1.30;;
23376;SDS011;14353;46.070;13.222;2023-04-19T03:55:31;1.90;;;1.80;;
23376;SDS011;14353;46.070;13.222;2023-04-19T03:57:57;1.80;;;1.60;;
23376;SDS011;14353;46.070;13.222;2023-04-19T04:00:23;1.58;;;1.48;;
23376;SDS011;14353;46.070;13.222;2023-04-19T04:02:49;1.75;;;1.65;;
23376;SDS011;14353;46.070;13.222;2023-04-19T04:05:14;1.63;;;1.52;;
23376;SDS011;14353;46.070;13.222;2023-04-19T04:07:40;2.03;;;1.83;;
23376;SDS011;14353;46.070;13.222;2023-04-19T04:10:06;1.90;;;1.67;;
23376;SDS011;14353;46.070;13.222;2023-04-19T04:12:32;1.75;;;1.58;;
23376;SDS011;14353;46.070;13.222;2023-04-19T04:14:58;1.83;;;1.70;;
23376;SDS011;14353;46.070;13.222;2023-04-19T04:17:24;1.70;;;1.60;;
23376;SDS011;14353;46.070;13.222;2023-04-19T04:19:49;1.90;;;1.70;;
23376;SDS011;14353;46.070;13.222;2023-04-19T04:22:15;1.60;;;1.50;;
23376;SDS011;14353;46.070;13.222;2023-04-19T04:24:41;2.00;;;1.70;;
23376;SDS011;14353;46.070;13.222;2023-04-19T04:27:08;2.63;;;1.80;;
23376;SDS011;14353;46.070;13.222;2023-04-19T04:29:35;2.75;;;1.63;;
23376;SDS011;14353;46.070;13.222;2023-04-19T04:32:02;1.80;;;1.70;;
23376;SDS011;14353;46.070;13.222;2023-04-19T04:34:28;1.80;;;1.70;;
23376;SDS011;14353;46.070;13.222;2023-04-19T04:36:54;1.60;;;1.50;;
23376;SDS011;14353;46.070;13.222;2023-04-19T04:39:20;1.73;;;1.63;;
23376;SDS011;14353;46.070;13.222;2023-04-19T04:41:47;1.67;;;1.50;;
23376;SDS011;14353;46.070;13.222;2023-04-19T04:44:14;1.70;;;1.60;;
23376;SDS011;14353;46.070;13.222;2023-04-19T04:46:40;2.00;;;1.88;;
23376;SDS011;14353;46.070;13.222;2023-04-19T04:49:05;1.70;;;1.60;;
23376;SDS011;14353;46.070;13.222;2023-04-19T04:51:31;2.10;;;1.90;;
23376;SDS011;14353;46.070;13.222;2023-04-19T04:53:57;1.77;;;1.67;;
23376;SDS011;14353;46.070;13.222;2023-04-19T04:56:23;1.75;;;1.65;;
23376;SDS011;14353;46.070;13.222;2023-04-19T04:58:49;1.60;;;1.50;;
23376;SDS011;14353;46.070;13.222;2023-04-19T05:01:15;1.70;;;1.60;;
23376;SDS011;14353;46.070;13.222;2023-04-19T05:03:43;1.52;;;1.42;;
23376;SDS011;14353;46.070;13.222;2023-04-19T05:06:09;1.65;;;1.55;;
23376;SDS011;14353;46.070;13.222;2023-04-19T05:08:35;2.13;;;1.92;;
23376;SDS011;14353;46.070;13.222;2023-04-19T05:11:01;1.90;;;1.70;;
23376;SDS011;14353;46.070;13.222;2023-04-19T05:13:27;1.90;;;1.60;;
23376;SDS011;14353;46.070;13.222;2023-04-19T05:15:53;1.48;;;1.38;;
23376;SDS011;14353;46.070;13.222;2023-04-19T05:18:18;1.67;;;1.58;;
23376;SDS011;14353;46.070;13.222;2023-04-19T05:20:44;2.40;;;1.95;;
23376;SDS011;14353;46.070;13.222;2023-04-19T05:23:10;2.03;;;1.52;;
23376;SDS011;14353;46.070;13.222;2023-04-19T05:25:36;1.92;;;1.77;;
23376;SDS011;14353;46.070;13.222;2023-04-19T05:28:02;2.25;;;1.80;;
23376;SDS011;14353;46.070;13.222;2023-04-19T05:30:28;1.63;;;1.52;;
23376;SDS011;14353;46.070;13.222;2023-04-19T05:32:54;2.35;;;1.63;;
23376;SDS011;14353;46.070;13.222;2023-04-19T05:35:23;1.63;;;1.52;;
23376;SDS011;14353;46.070;13.222;2023-04-19T05:37:49;1.63;;;1.52;;
23376;SDS011;14353;46.070;13.222;2023-04-19T05:40:14;1.65;;;1.55;;
23376;SDS011;14353;46.070;13.222;2023-04-19T05:42:40;2.15;;;1.77;;
23376;SDS011;14353;46.070;13.222;2023-04-19T05:45:06;1.52;;;1.42;;
23376;SDS011;14353;46.070;13.222;2023-04-19T05:47:32;1.85;;;1.70;;
23376;SDS011;14353;46.070;13.222;2023-04-19T05:49:58;1.70;;;1.60;;
23376;SDS011;14353;46.070;13.222;2023-04-19T05:52:24;1.80;;;1.63;;
23376;SDS011;14353;46.070;13.222;2023-04-19T05:54:50;3.58;;;1.70;;
23376;SDS011;14353;46.070;13.222;2023-04-19T05:57:16;2.15;;;1.80;;
23376;SDS011;14353;46.070;13.222;2023-04-19T05:59:42;2.00;;;1.80;;
23376;SDS011;14353;46.070;13.222;2023-04-19T06:02:08;2.72;;;2.05;;
23376;SDS011;14353;46.070;13.222;2023-04-19T06:04:33;2.58;;;1.80;;
23376;SDS011;14353;46.070;13.222;2023-04-19T06:06:59;3.60;;;1.80;;
23376;SDS011;14353;46.070;13.222;2023-04-19T06:09:25;3.60;;;1.95;;
23376;SDS011;14353;46.070;13.222;2023-04-19T06:11:52;3.80;;;2.22;;
23376;SDS011;14353;46.070;13.222;2023-04-19T06:14:22;6.68;;;2.80;;
23376;SDS011;14353;46.070;13.222;2023-04-19T06:16:56;5.80;;;2.80;;
23376;SDS011;14353;46.070;13.222;2023-04-19T06:19:22;5.07;;;3.30;;
23376;SDS011;14353;46.070;13.222;2023-04-19T06:21:48;5.63;;;2.80;;
23376;SDS011;14353;46.070;13.222;2023-04-19T06:24:15;5.72;;;3.10;;
23376;SDS011;14353;46.070;13.222;2023-04-19T06:26:40;6.88;;;3.10;;
23376;SDS011;14353;46.070;13.222;2023-04-19T06:29:07;5.00;;;3.03;;
23376;SDS011;14353;46.070;13.222;2023-04-19T06:31:32;7.80;;;3.42;;
23376;SDS011;14353;46.070;13.222;2023-04-19T06:33:58;6.82;;;3.65;;
23376;SDS011;14353;46.070;13.222;2023-04-19T06:36:24;4.20;;;3.55;;
23376;SDS011;14353;46.070;13.222;2023-04-19T06:38:50;5.28;;;3.63;;
23376;SDS011;14353;46.070;13.222;2023-04-19T06:41:16;5.95;;;3.95;;
23376;SDS011;14353;46.070;13.222;2023-04-19T06:43:42;4.82;;;3.50;;
23376;SDS011;14353;46.070;13.222;2023-04-19T06:46:08;6.00;;;3.70;;
23376;SDS011;14353;46.070;13.222;2023-04-19T06:48:35;4.53;;;3.50;;
23376;SDS011;14353;46.070;13.222;2023-04-19T06:51:01;7.20;;;3.50;;
23376;SDS011;14353;46.070;13.222;2023-04-19T06:53:27;5.68;;;3.55;;
23376;SDS011;14353;46.070;13.222;2023-04-19T06:55:56;5.00;;;3.55;;
23376;SDS011;14353;46.070;13.222;2023-04-19T06:58:26;6.93;;;3.90;;
23376;SDS011;14353;46.070;13.222;2023-04-19T07:00:53;6.60;;;3.72;;
23376;SDS011;14353;46.070;13.222;2023-04-19T07:03:19;6.65;;;4.00;;
23376;SDS011;14353;46.070;13.222;2023-04-19T07:05:45;5.53;;;3.50;;
23376;SDS011;14353;46.070;13.222;2023-04-19T07:08:11;6.30;;;3.95;;
23376;SDS011;14353;46.070;13.222;2023-04-19T07:10:39;6.03;;;3.60;;
23376;SDS011;14353;46.070;13.222;2023-04-19T07:13:07;7.07;;;3.63;;
23376;SDS011;14353;46.070;13.222;2023-04-19T07:15:37;5.10;;;3.53;;
23376;SDS011;14353;46.070;13.222;2023-04-19T07:18:03;5.95;;;3.20;;
23376;SDS011;14353;46.070;13.222;2023-04-19T07:20:29;7.88;;;3.78;;
23376;SDS011;14353;46.070;13.222;2023-04-19T07:22:58;6.65;;;3.20;;
23376;SDS011;14353;46.070;13.222;2023-04-19T07:25:24;4.43;;;3.30;;
23376;SDS011;14353;46.070;13.222;2023-04-19T07:27:54;4.90;;;2.90;;
23376;SDS011;14353;46.070;13.222;2023-04-19T07:30:20;3.63;;;2.90;;
23376;SDS011;14353;46.070;13.222;2023-04-19T07:32:46;9.07;;;3.75;;
23376;SDS011;14353;46.070;13.222;2023-04-19T07:35:15;6.85;;;3.30;;
23376;SDS011;14353;46.070;13.222;2023-04-19T07:37:40;5.22;;;2.90;;
23376;SDS011;14353;46.070;13.222;2023-04-19T07:40:06;7.95;;;3.03;;
23376;SDS011;14353;46.070;13.222;2023-04-19T07:42:32;4.82;;;2.90;;
23376;SDS011;14353;46.070;13.222;2023-04-19T07:44:58;5.70;;;2.83;;
23376;SDS011;14353;46.070;13.222;2023-04-19T07:47:24;4.78;;;3.10;;
23376;SDS011;14353;46.070;13.222;2023-04-19T07:49:50;5.18;;;2.88;;
23376;SDS011;14353;46.070;13.222;2023-04-19T07:52:17;5.75;;;3.03;;
23376;SDS011;14353;46.070;13.222;2023-04-19T07:54:45;4.40;;;2.60;;
23376;SDS011;14353;46.070;13.222;2023-04-19T07:57:11;6.97;;;2.88;;
23376;SDS011;14353;46.070;13.222;2023-04-19T07:59:36;6.45;;;3.22;;
23376;SDS011;14353;46.070;13.222;2023-04-19T08:02:02;5.20;;;2.90;;
23376;SDS011;14353;46.070;13.222;2023-04-19T08:04:28;4.90;;;2.65;;
23376;SDS011;14353;46.070;13.222;2023-04-19T08:06:53;8.73;;;2.70;;
23376;SDS011;14353;46.070;13.222;2023-04-19T08:09:19;4.57;;;2.58;;
23376;SDS011;14353;46.070;13.222;2023-04-19T08:11:45;8.15;;;2.65;;
23376;SDS011;14353;46.070;13.222;2023-04-19T08:14:11;7.15;;;2.92;;
23376;SDS011;14353;46.070;13.222;2023-04-19T08:16:36;6.72;;;2.88;;
23376;SDS011;14353;46.070;13.222;2023-04-19T08:19:02;6.43;;;2.60;;
23376;SDS011;14353;46.070;13.222;2023-04-19T08:21:28;7.75;;;2.38;;
23376;SDS011;14353;46.070;13.222;2023-04-19T08:23:53;7.32;;;2.42;;
23376;SDS011;14353;46.070;13.222;2023-04-19T08:26:19;10.23;;;2.45;;
23376;SDS011;14353;46.070;13.222;2023-04-19T08:28:46;7.72;;;2.78;;
23376;SDS011;14353;46.070;13.222;2023-04-19T08:31:13;9.02;;;2.88;;
23376;SDS011;14353;46.070;13.222;2023-04-19T08:33:39;5.18;;;2.50;;
23376;SDS011;14353;46.070;13.222;2023-04-19T08:36:05;11.57;;;2.63;;
23376;SDS011;14353;46.070;13.222;2023-04-19T08:38:31;6.40;;;2.30;;
23376;SDS011;14353;46.070;13.222;2023-04-19T08:40:57;8.57;;;2.45;;
23376;SDS011;14353;46.070;13.222;2023-04-19T08:43:24;7.57;;;2.20;;
23376;SDS011;14353;46.070;13.222;2023-04-19T08:45:57;7.35;;;2.30;;
23376;SDS011;14353;46.070;13.222;2023-04-19T08:48:23;7.30;;;2.58;;
23376;SDS011;14353;46.070;13.222;2023-04-19T08:50:51;8.43;;;2.17;;
23376;SDS011;14353;46.070;13.222;2023-04-19T08:53:18;7.38;;;2.58;;
23376;SDS011;14353;46.070;13.222;2023-04-19T08:55:44;6.70;;;2.20;;
23376;SDS011;14353;46.070;13.222;2023-04-19T08:58:10;9.40;;;2.28;;
23376;SDS011;14353;46.070;13.222;2023-04-19T09:00:39;6.72;;;2.05;;
23376;SDS011;14353;46.070;13.222;2023-04-19T09:03:06;7.03;;;2.30;;
23376;SDS011;14353;46.070;13.222;2023-04-19T09:05:32;8.70;;;2.28;;
23376;SDS011;14353;46.070;13.222;2023-04-19T09:10:57;7.57;;;2.35;;
23376;SDS011;14353;46.070;13.222;2023-04-19T09:13:24;6.30;;;2.42;;
23376;SDS011;14353;46.070;13.222;2023-04-19T09:15:51;6.63;;;2.33;;
23376;SDS011;14353;46.070;13.222;2023-04-19T09:18:18;8.13;;;2.75;;
23376;SDS011;14353;46.070;13.222;2023-04-19T09:20:44;15.18;;;2.78;;
23376;SDS011;14353;46.070;13.222;2023-04-19T09:23:12;8.82;;;2.58;;
23376;SDS011;14353;46.070;13.222;2023-04-19T09:28:21;16.60;;;2.65;;
23376;SDS011;14353;46.070;13.222;2023-04-19T09:30:48;8.52;;;2.50;;
23376;SDS011;14353;46.070;13.222;2023-04-19T09:33:36;11.95;;;2.35;;
23376;SDS011;14353;46.070;13.222;2023-04-19T09:36:09;9.85;;;2.28;;
23376;SDS011;14353;46.070;13.222;2023-04-19T09:38:47;8.60;;;2.60;;
23376;SDS011;14353;46.070;13.222;2023-04-19T09:41:13;14.93;;;2.50;;
23376;SDS011;14353;46.070;13.222;2023-04-19T09:43:41;11.45;;;2.75;;
23376;SDS011;14353;46.070;13.222;2023-04-19T09:46:07;10.15;;;2.90;;
23376;SDS011;14353;46.070;13.222;2023-04-19T09:48:33;10.82;;;2.58;;
23376;SDS011;14353;46.070;13.222;2023-04-19T09:51:01;13.27;;;2.85;;
23376;SDS011;14353;46.070;13.222;2023-04-19T09:53:27;18.40;;;2.80;;
23376;SDS011;14353;46.070;13.222;2023-04-19T09:55:55;12.77;;;3.15;;
23376;SDS011;14353;46.070;13.222;2023-04-19T09:58:21;11.68;;;2.85;;
23376;SDS011;14353;46.070;13.222;2023-04-19T10:00:47;15.82;;;2.83;;
23376;SDS011;14353;46.070;13.222;2023-04-19T10:03:14;11.38;;;2.78;;
23376;SDS011;14353;46.070;13.222;2023-04-19T10:05:41;8.65;;;2.65;;
23376;SDS011;14353;46.070;13.222;2023-04-19T10:08:08;14.05;;;2.80;;
23376;SDS011;14353;46.070;13.222;2023-04-19T10:10:36;14.07;;;2.92;;
23376;SDS011;14353;46.070;13.222;2023-04-19T10:13:04;12.95;;;2.40;;
23376;SDS011;14353;46.070;13.222;2023-04-19T10:15:31;8.52;;;2.33;;
23376;SDS011;14353;46.070;13.222;2023-04-19T10:18:00;8.63;;;2.40;;
23376;SDS011;14353;46.070;13.222;2023-04-19T10:20:29;10.45;;;2.50;;
23376;SDS011;14353;46.070;13.222;2023-04-19T10:23:05;7.50;;;2.30;;
23376;SDS011;14353;46.070;13.222;2023-04-19T10:25:35;7.20;;;2.55;;
23376;SDS011;14353;46.070;13.222;2023-04-19T10:28:01;9.93;;;2.40;;
23376;SDS011;14353;46.070;13.222;2023-04-19T10:30:27;7.20;;;2.30;;
23376;SDS011;14353;46.070;13.222;2023-04-19T10:32:54;7.00;;;2.13;;
23376;SDS011;14353;46.070;13.222;2023-04-19T10:35:22;6.93;;;2.35;;
23376;SDS011;14353;46.070;13.222;2023-04-19T10:40:52;11.45;;;3.22;;
23376;SDS011;14353;46.070;13.222;2023-04-19T10:43:34;14.60;;;3.70;;
23376;SDS011;14353;46.070;13.222;2023-04-19T10:48:34;9.25;;;3.45;;
23376;SDS011;14353;46.070;13.222;2023-04-19T10:51:03;10.95;;;3.47;;
23376;SDS011;14353;46.070;13.222;2023-04-19T10:53:59;10.68;;;3.05;;
23376;SDS011;14353;46.070;13.222;2023-04-19T11:01:36;9.55;;;3.50;;
23376;SDS011;14353;46.070;13.222;2023-04-19T11:07:05;10.85;;;3.50;;
23376;SDS011;14353;46.070;13.222;2023-04-19T11:12:02;8.57;;;2.92;;
23376;SDS011;14353;46.070;13.222;2023-04-19T11:14:48;5.90;;;2.60;;
23376;SDS011;14353;46.070;13.222;2023-04-19T11:17:16;5.88;;;2.67;;
23376;SDS011;14353;46.070;13.222;2023-04-19T11:19:52;5.07;;;2.50;;
23376;SDS011;14353;46.070;13.222;2023-04-19T11:22:23;5.05;;;2.53;;
23376;SDS011;14353;46.070;13.222;2023-04-19T11:27:44;8.80;;;2.45;;
23376;SDS011;14353;46.070;13.222;2023-04-19T11:30:15;6.10;;;2.22;;
23376;SDS011;14353;46.070;13.222;2023-04-19T11:32:46;4.55;;;2.30;;
23376;SDS011;14353;46.070;13.222;2023-04-19T11:35:22;5.88;;;2.53;;
23376;SDS011;14353;46.070;13.222;2023-04-19T11:37:49;5.57;;;2.22;;
23376;SDS011;14353;46.070;13.222;2023-04-19T11:40:17;6.47;;;2.10;;
23376;SDS011;14353;46.070;13.222;2023-04-19T11:42:44;3.67;;;2.25;;
23376;SDS011;14353;46.070;13.222;2023-04-19T11:45:11;5.25;;;2.47;;
23376;SDS011;14353;46.070;13.222;2023-04-19T11:47:47;7.18;;;2.47;;
23376;SDS011;14353;46.070;13.222;2023-04-19T11:53:09;3.55;;;2.15;;
23376;SDS011;14353;46.070;13.222;2023-04-19T11:55:43;6.32;;;2.50;;
23376;SDS011;14353;46.070;13.222;2023-04-19T12:01:02;4.78;;;1.92;;
23376;SDS011;14353;46.070;13.222;2023-04-19T12:03:33;3.15;;;1.75;;
23376;SDS011;14353;46.070;13.222;2023-04-19T12:06:05;3.17;;;1.80;;
23376;SDS011;14353;46.070;13.222;2023-04-19T12:08:35;5.35;;;1.85;;
23376;SDS011;14353;46.070;13.222;2023-04-19T12:11:02;5.40;;;1.77;;
23376;SDS011;14353;46.070;13.222;2023-04-19T12:13:30;5.22;;;1.58;;
23376;SDS011;14353;46.070;13.222;2023-04-19T12:15:57;2.40;;;1.77;;
23376;SDS011;14353;46.070;13.222;2023-04-19T12:18:23;5.95;;;1.98;;
23376;SDS011;14353;46.070;13.222;2023-04-19T12:20:50;4.10;;;1.90;;
23376;SDS011;14353;46.070;13.222;2023-04-19T12:23:17;4.43;;;1.60;;
23376;SDS011;14353;46.070;13.222;2023-04-19T12:25:45;3.20;;;1.70;;
23376;SDS011;14353;46.070;13.222;2023-04-19T12:28:12;3.38;;;1.70;;
23376;SDS011;14353;46.070;13.222;2023-04-19T12:30:39;3.45;;;1.80;;
23376;SDS011;14353;46.070;13.222;2023-04-19T12:33:05;2.33;;;1.83;;
23376;SDS011;14353;46.070;13.222;2023-04-19T12:35:32;2.15;;;1.67;;
23376;SDS011;14353;46.070;13.222;2023-04-19T12:37:58;2.72;;;1.80;;
23376;SDS011;14353;46.070;13.222;2023-04-19T12:40:25;2.63;;;1.75;;
23376;SDS011;14353;46.070;13.222;2023-04-19T12:42:51;2.35;;;1.70;;
23376;SDS011;14353;46.070;13.222;2023-04-19T12:45:18;3.30;;;1.70;;
23376;SDS011;14353;46.070;13.222;2023-04-19T12:47:44;2.80;;;1.88;;
23376;SDS011;14353;46.070;13.222;2023-04-19T12:50:11;2.63;;;1.40;;
23376;SDS011;14353;46.070;13.222;2023-04-19T12:52:38;2.10;;;1.40;;
23376;SDS011;14353;46.070;13.222;2023-04-19T12:55:04;3.28;;;1.52;;
23376;SDS011;14353;46.070;13.222;2023-04-19T12:57:31;3.00;;;1.40;;
23376;SDS011;14353;46.070;13.222;2023-04-19T12:59:57;1.50;;;1.23;;
23376;SDS011;14353;46.070;13.222;2023-04-19T13:02:22;2.13;;;1.60;;
23376;SDS011;14353;46.070;13.222;2023-04-19T13:04:48;1.88;;;1.42;;
23376;SDS011;14353;46.070;13.222;2023-04-19T13:07:14;1.75;;;1.40;;
23376;SDS011;14353;46.070;13.222;2023-04-19T13:09:40;2.03;;;1.25;;
23376;SDS011;14353;46.070;13.222;2023-04-19T13:12:06;2.55;;;1.33;;
23376;SDS011;14353;46.070;13.222;2023-04-19T13:14:31;2.05;;;1.20;;
23376;SDS011;14353;46.070;13.222;2023-04-19T13:16:57;1.50;;;1.30;;
23376;SDS011;14353;46.070;13.222;2023-04-19T13:19:24;1.60;;;1.30;;
23376;SDS011;14353;46.070;13.222;2023-04-19T13:21:50;1.70;;;1.40;;
23376;SDS011;14353;46.070;13.222;2023-04-19T13:24:15;3.42;;;1.25;;
23376;SDS011;14353;46.070;13.222;2023-04-19T13:26:41;3.08;;;1.40;;
23376;SDS011;14353;46.070;13.222;2023-04-19T13:29:07;3.72;;;1.40;;
23376;SDS011;14353;46.070;13.222;2023-04-19T13:31:33;3.78;;;1.30;;
23376;SDS011;14353;46.070;13.222;2023-04-19T13:33:59;2.92;;;1.60;;
23376;SDS011;14353;46.070;13.222;2023-04-19T13:36:25;7.95;;;1.50;;
23376;SDS011;14353;46.070;13.222;2023-04-19T13:38:52;8.10;;;1.67;;
23376;SDS011;14353;46.070;13.222;2023-04-19T13:41:18;6.63;;;1.67;;
23376;SDS011;14353;46.070;13.222;2023-04-19T13:43:44;1.83;;;1.52;;
23376;SDS011;14353;46.070;13.222;2023-04-19T13:46:10;2.38;;;1.48;;
23376;SDS011;14353;46.070;13.222;2023-04-19T13:48:37;2.50;;;1.20;;
23376;SDS011;14353;46.070;13.222;2023-04-19T13:51:02;7.22;;;1.80;;
23376;SDS011;14353;46.070;13.222;2023-04-19T13:53:28;3.50;;;1.30;;
23376;SDS011;14353;46.070;13.222;2023-04-19T13:55:54;5.05;;;1.42;;
23376;SDS011;14353;46.070;13.222;2023-04-19T13:58:20;2.88;;;1.30;;
23376;SDS011;14353;46.070;13.222;2023-04-19T14:00:46;2.80;;;1.40;;
23376;SDS011;14353;46.070;13.222;2023-04-19T14:03:14;1.95;;;1.40;;
23376;SDS011;14353;46.070;13.222;2023-04-19T14:05:40;3.25;;;1.30;;
23376;SDS011;14353;46.070;13.222;2023-04-19T14:08:07;4.50;;;1.30;;
23376;SDS011;14353;46.070;13.222;2023-04-19T14:10:33;4.80;;;1.30;;
23376;SDS011;14353;46.070;13.222;2023-04-19T14:12:59;2.22;;;1.30;;
23376;SDS011;14353;46.070;13.222;2023-04-19T14:15:25;1.95;;;1.20;;
23376;SDS011;14353;46.070;13.222;2023-04-19T14:17:50;3.33;;;1.20;;
23376;SDS011;14353;46.070;13.222;2023-04-19T14:20:16;1.60;;;1.40;;
23376;SDS011;14353;46.070;13.222;2023-04-19T14:22:42;1.50;;;1.13;;
23376;SDS011;14353;46.070;13.222;2023-04-19T14:25:09;2.80;;;1.40;;
23376;SDS011;14353;46.070;13.222;2023-04-19T14:27:37;4.03;;;1.60;;
23376;SDS011;14353;46.070;13.222;2023-04-19T14:30:03;1.90;;;1.10;;
23376;SDS011;14353;46.070;13.222;2023-04-19T14:32:30;3.10;;;1.40;;
23376;SDS011;14353;46.070;13.222;2023-04-19T14:34:56;2.97;;;1.20;;
23376;SDS011;14353;46.070;13.222;2023-04-19T14:37:22;2.35;;;1.40;;
23376;SDS011;14353;46.070;13.222;2023-04-19T14:39:48;2.42;;;1.17;;
23376;SDS011;14353;46.070;13.222;2023-04-19T14:42:14;1.80;;;1.30;;
23376;SDS011;14353;46.070;13.222;2023-04-19T14:44:39;3.75;;;1.30;;
23376;SDS011;14353;46.070;13.222;2023-04-19T14:47:05;3.50;;;1.20;;
23376;SDS011;14353;46.070;13.222;2023-04-19T14:49:31;2.33;;;1.38;;
23376;SDS011;14353;46.070;13.222;2023-04-19T14:51:57;3.65;;;1.30;;
23376;SDS011;14353;46.070;13.222;2023-04-19T14:54:23;3.00;;;1.30;;
23376;SDS011;14353;46.070;13.222;2023-04-19T14:56:48;2.75;;;1.42;;
23376;SDS011;14353;46.070;13.222;2023-04-19T14:59:14;2.42;;;1.27;;
23376;SDS011;14353;46.070;13.222;2023-04-19T15:01:40;2.75;;;1.30;;